Time;durP1;ratioP1;P1;durP2;ratioP2;P2;SDS_P1;SDS_P2;PMS_P1;PMS_P2;Temp;Humidity;BMP_temperature;BMP_pressure;BME280_temperature;BME280_humidity;BME280_pressure;Samples;Min_cycle;Max_cycle;Signal;HPM_P1;HPM_P2
2023/07/26 00:01:14;;;;;;;0.52;0.50;;;;;;;;;;5069644;28;20382;-78
2023/07/26 00:03:40;;;;;;;0.75;0.60;;;;;;;;;;5075810;28;20024;-78
2023/07/26 00:06:06;;;;;;;0.60;0.60;;;;;;;;;;5068887;28;20111;-78
2023/07/26 00:08:32;;;;;;;0.90;0.70;;;;;;;;;;5069285;28;20043;-78
2023/07/26 00:10:58;;;;;;;0.50;0.50;;;;;;;;;;5067637;28;20029;-78
2023/07/26 00:13:24;;;;;;;0.10;0.10;;;;;;;;;;5070400;28;20043;-77
2023/07/26 00:15:50;;;;;;;0.40;0.40;;;;;;;;;;5068967;28;20033;-78
2023/07/26 00:18:16;;;;;;;0.40;0.40;;;;;;;;;;5068565;28;20032;-78
2023/07/26 00:20:45;;;;;;;0.38;0.38;;;;;;;;;;5068659;28;20039;-78
2023/07/26 00:23:13;;;;;;;0.57;0.50;;;;;;;;;;5068056;28;20111;-78
2023/07/26 00:25:39;;;;;;;0.38;0.38;;;;;;;;;;5059179;28;20021;-78
2023/07/26 00:28:05;;;;;;;0.33;0.33;;;;;;;;;;4958421;28;3392116;-77
2023/07/26 00:30:31;;;;;;;1.00;0.50;;;;;;;;;;5067200;28;20040;-78
2023/07/26 00:32:57;;;;;;;0.47;0.47;;;;;;;;;;5067994;28;20032;-78
2023/07/26 00:35:25;;;;;;;0.40;0.40;;;;;;;;;;5067854;28;20048;-77
2023/07/26 00:37:51;;;;;;;1.77;0.80;;;;;;;;;;5066239;28;20051;-78
2023/07/26 00:40:17;;;;;;;1.75;0.60;;;;;;;;;;5067253;28;20024;-78
2023/07/26 00:42:43;;;;;;;0.50;0.50;;;;;;;;;;5068066;28;20024;-78
2023/07/26 00:45:09;;;;;;;0.80;0.47;;;;;;;;;;5067253;28;20020;-78
2023/07/26 00:47:36;;;;;;;0.70;0.57;;;;;;;;;;5066839;28;20768;-77
2023/07/26 00:50:02;;;;;;;0.45;0.45;;;;;;;;;;5065577;28;20548;-77
2023/07/26 00:52:28;;;;;;;0.30;0.30;;;;;;;;;;5067384;28;20024;-77
2023/07/26 00:54:57;;;;;;;0.70;0.55;;;;;;;;;;5066916;28;20056;-77
2023/07/26 00:57:25;;;;;;;0.40;0.40;;;;;;;;;;5066362;28;20086;-78
2023/07/26 00:59:51;;;;;;;0.60;0.60;;;;;;;;;;5066266;28;20132;-78
2023/07/26 01:02:17;;;;;;;0.80;0.50;;;;;;;;;;5067131;28;20032;-78
2023/07/26 01:04:43;;;;;;;0.40;0.40;;;;;;;;;;5067706;28;20032;-77
2023/07/26 01:07:24;;;;;;;0.40;0.40;;;;;;;;;;5068240;28;20043;-78
2023/07/26 01:09:50;;;;;;;0.50;0.50;;;;;;;;;;5061227;28;20017;-77
2023/07/26 01:12:28;;;;;;;0.50;0.50;;;;;;;;;;5068953;28;20043;-78
2023/07/26 01:15:02;;;;;;;0.47;0.43;;;;;;;;;;5069041;28;20017;-77
2023/07/26 01:17:29;;;;;;;0.50;0.50;;;;;;;;;;5068218;28;20024;-77
2023/07/26 01:19:56;;;;;;;3.00;0.65;;;;;;;;;;5068356;28;20024;-78
2023/07/26 01:22:22;;;;;;;0.50;0.50;;;;;;;;;;5068899;28;20032;-78
2023/07/26 01:24:48;;;;;;;0.50;0.50;;;;;;;;;;5067467;28;20035;-77
2023/07/26 01:27:14;;;;;;;0.55;0.52;;;;;;;;;;5067863;28;20036;-78
2023/07/26 01:29:40;;;;;;;0.65;0.65;;;;;;;;;;5067547;28;20136;-78
2023/07/26 01:32:07;;;;;;;0.40;0.40;;;;;;;;;;5069016;28;20082;-78
2023/07/26 01:34:36;;;;;;;0.50;0.50;;;;;;;;;;5069016;28;20059;-78
2023/07/26 01:37:02;;;;;;;0.75;0.40;;;;;;;;;;5067666;28;20123;-78
2023/07/26 01:39:29;;;;;;;0.40;0.40;;;;;;;;;;5079954;28;20036;-77
2023/07/26 01:41:55;;;;;;;0.40;0.40;;;;;;;;;;5068142;28;20111;-77
2023/07/26 01:44:21;;;;;;;0.50;0.50;;;;;;;;;;5068600;28;20217;-78
2023/07/26 01:46:47;;;;;;;1.38;0.50;;;;;;;;;;5068850;28;20025;-77
2023/07/26 01:49:16;;;;;;;0.32;0.32;;;;;;;;;;5066815;28;20036;-78
2023/07/26 01:51:42;;;;;;;0.30;0.30;;;;;;;;;;5068326;28;20028;-77
2023/07/26 01:54:08;;;;;;;0.57;0.57;;;;;;;;;;5068606;28;20032;-77
2023/07/26 01:56:34;;;;;;;0.30;0.30;;;;;;;;;;5068237;28;20099;-77
2023/07/26 01:59:00;;;;;;;0.30;0.30;;;;;;;;;;5067701;28;20120;-78
2023/07/26 02:01:26;;;;;;;0.40;0.40;;;;;;;;;;5068036;28;20518;-78
2023/07/26 02:03:55;;;;;;;0.50;0.50;;;;;;;;;;5067640;28;20031;-78
2023/07/26 02:06:21;;;;;;;0.35;0.35;;;;;;;;;;5068032;28;20027;-78
2023/07/26 02:08:47;;;;;;;0.70;0.40;;;;;;;;;;5066570;28;20025;-78
2023/07/26 02:11:13;;;;;;;0.30;0.30;;;;;;;;;;5072247;28;20037;-78
2023/07/26 02:13:39;;;;;;;0.80;0.50;;;;;;;;;;5066953;28;20036;-78
2023/07/26 02:16:05;;;;;;;0.40;0.40;;;;;;;;;;5068007;28;20082;-77
2023/07/26 02:18:31;;;;;;;0.35;0.35;;;;;;;;;;5062350;28;20031;-77
2023/07/26 02:20:57;;;;;;;0.50;0.50;;;;;;;;;;5062910;28;20027;-78
2023/07/26 02:23:23;;;;;;;0.50;0.40;;;;;;;;;;5067953;28;20028;-77
2023/07/26 02:25:49;;;;;;;0.50;0.50;;;;;;;;;;5068449;28;20024;-77
2023/07/26 02:28:15;;;;;;;0.98;0.70;;;;;;;;;;5083484;28;20511;-78
2023/07/26 02:30:41;;;;;;;0.40;0.40;;;;;;;;;;5066403;28;20039;-78
2023/07/26 02:33:07;;;;;;;0.47;0.47;;;;;;;;;;5066865;28;20029;-78
2023/07/26 02:35:33;;;;;;;0.50;0.50;;;;;;;;;;5050224;28;20021;-77
2023/07/26 02:37:59;;;;;;;0.85;0.40;;;;;;;;;;5080296;28;20097;-78
2023/07/26 02:40:25;;;;;;;0.45;0.45;;;;;;;;;;5067224;28;20020;-78
2023/07/26 02:42:51;;;;;;;0.38;0.38;;;;;;;;;;5077680;28;20406;-78
2023/07/26 02:45:17;;;;;;;0.50;0.50;;;;;;;;;;5068154;28;20024;-78
2023/07/26 02:47:43;;;;;;;0.45;0.40;;;;;;;;;;5068171;28;20033;-77
2023/07/26 02:50:09;;;;;;;0.95;0.70;;;;;;;;;;5067453;28;20021;-77
2023/07/26 02:52:35;;;;;;;1.38;0.32;;;;;;;;;;5066893;28;20037;-78
2023/07/26 02:55:01;;;;;;;0.40;0.40;;;;;;;;;;5074886;28;20525;-77
2023/07/26 02:57:27;;;;;;;0.50;0.47;;;;;;;;;;5070487;28;20040;-78
2023/07/26 02:59:55;;;;;;;2.17;0.70;;;;;;;;;;5068139;28;20119;-77
2023/07/26 03:02:22;;;;;;;0.55;0.50;;;;;;;;;;5066546;28;20424;-78
2023/07/26 03:04:48;;;;;;;0.40;0.40;;;;;;;;;;5070432;28;20039;-78
2023/07/26 03:07:14;;;;;;;0.35;0.35;;;;;;;;;;5069292;28;20025;-77
2023/07/26 03:09:40;;;;;;;0.80;0.50;;;;;;;;;;5067934;28;20028;-78
2023/07/26 03:12:06;;;;;;;2.47;0.63;;;;;;;;;;5067352;28;20028;-77
2023/07/26 03:14:32;;;;;;;0.38;0.38;;;;;;;;;;5067881;28;20035;-77
2023/07/26 03:16:58;;;;;;;0.30;0.30;;;;;;;;;;5075504;28;20040;-77
2023/07/26 03:19:24;;;;;;;0.60;0.45;;;;;;;;;;5067105;28;20059;-77
2023/07/26 03:21:50;;;;;;;0.50;0.50;;;;;;;;;;5070476;28;20032;-77
2023/07/26 03:24:16;;;;;;;0.30;0.30;;;;;;;;;;5071224;28;20040;-77
2023/07/26 03:26:42;;;;;;;1.88;0.50;;;;;;;;;;5072484;28;20031;-77
2023/07/26 03:29:08;;;;;;;0.40;0.40;;;;;;;;;;5071476;28;20548;-77
2023/07/26 03:31:34;;;;;;;0.80;0.60;;;;;;;;;;5071121;28;20028;-78
2023/07/26 03:34:00;;;;;;;0.40;0.40;;;;;;;;;;5070630;28;20032;-77
2023/07/26 03:36:26;;;;;;;0.40;0.40;;;;;;;;;;5074612;28;20020;-78
2023/07/26 03:38:55;;;;;;;0.50;0.50;;;;;;;;;;5078268;28;20035;-78
2023/07/26 03:41:21;;;;;;;0.20;0.20;;;;;;;;;;5070040;28;20041;-78
2023/07/26 03:43:47;;;;;;;0.70;0.70;;;;;;;;;;5066814;28;20028;-77
2023/07/26 03:46:13;;;;;;;0.50;0.50;;;;;;;;;;5065990;28;20474;-77
2023/07/26 03:48:39;;;;;;;0.60;0.40;;;;;;;;;;5071616;28;20040;-78
2023/07/26 03:51:05;;;;;;;0.70;0.45;;;;;;;;;;5071091;28;20495;-76
2023/07/26 03:53:30;;;;;;;0.82;0.50;;;;;;;;;;5070201;28;20032;-77
2023/07/26 03:55:56;;;;;;;0.52;0.52;;;;;;;;;;5070868;28;20029;-77
2023/07/26 03:58:22;;;;;;;0.25;0.25;;;;;;;;;;5079229;28;20584;-77
2023/07/26 04:00:51;;;;;;;0.60;0.60;;;;;;;;;;5071115;28;20041;-77
2023/07/26 04:03:17;;;;;;;0.57;0.43;;;;;;;;;;5069820;28;20128;-77
2023/07/26 04:05:43;;;;;;;0.40;0.40;;;;;;;;;;5070492;28;20025;-77
2023/07/26 04:08:09;;;;;;;0.40;0.40;;;;;;;;;;5069764;28;20056;-77
2023/07/26 04:10:35;;;;;;;0.50;0.50;;;;;;;;;;5070272;28;20032;-77
2023/07/26 04:13:01;;;;;;;0.50;0.50;;;;;;;;;;5070270;28;20028;-77
2023/07/26 04:15:26;;;;;;;0.32;0.32;;;;;;;;;;5070170;28;20030;-77
2023/07/26 04:17:52;;;;;;;0.32;0.32;;;;;;;;;;5069915;28;20027;-77
2023/07/26 04:20:18;;;;;;;0.70;0.70;;;;;;;;;;5071411;28;20029;-77
2023/07/26 04:22:44;;;;;;;0.30;0.30;;;;;;;;;;5070288;28;20112;-78
2023/07/26 04:25:10;;;;;;;2.38;0.50;;;;;;;;;;5069472;28;20025;-77
2023/07/26 04:27:36;;;;;;;0.52;0.52;;;;;;;;;;5070211;28;20024;-77
2023/07/26 04:30:03;;;;;;;1.00;0.50;;;;;;;;;;5077582;28;20041;-78
2023/07/26 04:32:29;;;;;;;0.50;0.50;;;;;;;;;;5069028;28;20079;-77
2023/07/26 04:34:55;;;;;;;0.52;0.52;;;;;;;;;;5069537;28;20078;-77
2023/07/26 04:37:22;;;;;;;0.43;0.43;;;;;;;;;;5069859;28;20032;-77
2023/07/26 04:39:48;;;;;;;0.22;0.22;;;;;;;;;;5068605;28;20055;-77
2023/07/26 04:42:14;;;;;;;0.95;0.50;;;;;;;;;;5069106;28;20056;-77
2023/07/26 04:44:40;;;;;;;1.42;0.70;;;;;;;;;;5069014;28;20040;-78
2023/07/26 04:47:06;;;;;;;0.55;0.43;;;;;;;;;;5069222;28;20024;-78
2023/07/26 04:49:32;;;;;;;0.60;0.32;;;;;;;;;;5063203;28;20017;-77
2023/07/26 04:51:58;;;;;;;0.68;0.50;;;;;;;;;;5068621;28;20032;-77
2023/07/26 04:54:32;;;;;;;1.80;0.55;;;;;;;;;;5068765;28;20074;-77
2023/07/26 04:56:58;;;;;;;1.67;0.43;;;;;;;;;;5068777;28;20063;-78
2023/07/26 04:59:26;;;;;;;0.57;0.57;;;;;;;;;;5069289;28;20025;-77
2023/07/26 05:01:52;;;;;;;0.50;0.50;;;;;;;;;;5074286;28;20033;-77
2023/07/26 05:04:21;;;;;;;0.55;0.55;;;;;;;;;;5068297;28;20044;-77
2023/07/26 05:06:47;;;;;;;1.15;0.70;;;;;;;;;;5069281;28;20070;-77
2023/07/26 05:09:13;;;;;;;0.43;0.43;;;;;;;;;;5068862;28;20028;-77
2023/07/26 05:11:39;;;;;;;0.40;0.40;;;;;;;;;;5068910;28;20032;-77
2023/07/26 05:14:05;;;;;;;0.25;0.25;;;;;;;;;;5069336;28;20021;-77
2023/07/26 05:16:31;;;;;;;0.55;0.55;;;;;;;;;;5068382;28;20488;-77
2023/07/26 05:18:58;;;;;;;0.70;0.70;;;;;;;;;;5068574;28;20036;-77
2023/07/26 05:21:25;;;;;;;0.45;0.40;;;;;;;;;;5063568;28;20024;-76
2023/07/26 05:23:51;;;;;;;0.95;0.38;;;;;;;;;;5073473;28;20505;-77
2023/07/26 05:26:17;;;;;;;0.68;0.40;;;;;;;;;;5068921;28;20021;-78
2023/07/26 05:28:42;;;;;;;0.77;0.50;;;;;;;;;;5068216;28;20040;-77
2023/07/26 05:31:08;;;;;;;0.50;0.50;;;;;;;;;;5068282;28;20031;-77
2023/07/26 05:33:34;;;;;;;0.40;0.40;;;;;;;;;;5068899;28;20017;-77
2023/07/26 05:36:00;;;;;;;0.50;0.50;;;;;;;;;;5067904;28;20663;-77
2023/07/26 05:38:26;;;;;;;0.98;0.68;;;;;;;;;;5067883;28;20055;-73
2023/07/26 05:40:52;;;;;;;0.47;0.43;;;;;;;;;;5065872;28;20021;-73
2023/07/26 05:43:18;;;;;;;0.80;0.52;;;;;;;;;;5065983;28;20033;-73
2023/07/26 05:45:44;;;;;;;0.70;0.50;;;;;;;;;;5072530;28;20072;-73
2023/07/26 05:48:10;;;;;;;0.80;0.80;;;;;;;;;;5077182;28;20020;-73
2023/07/26 05:50:36;;;;;;;0.82;0.43;;;;;;;;;;5072488;28;20031;-74
2023/07/26 05:53:02;;;;;;;0.50;0.50;;;;;;;;;;5074332;28;20025;-73
2023/07/26 05:55:28;;;;;;;0.63;0.50;;;;;;;;;;5091290;28;20024;-73
2023/07/26 05:57:54;;;;;;;0.50;0.50;;;;;;;;;;5069567;28;20027;-74
2023/07/26 06:00:21;;;;;;;0.50;0.50;;;;;;;;;;5068666;28;20039;-73
2023/07/26 06:02:47;;;;;;;0.50;0.50;;;;;;;;;;5074921;28;20022;-74
2023/07/26 06:05:13;;;;;;;0.98;0.60;;;;;;;;;;5076238;28;20387;-74
2023/07/26 06:07:39;;;;;;;1.45;0.63;;;;;;;;;;5069448;28;20099;-74
2023/07/26 06:10:05;;;;;;;0.93;0.50;;;;;;;;;;5050540;28;20371;-73
2023/07/26 06:12:31;;;;;;;2.30;0.88;;;;;;;;;;5065382;28;20390;-73
2023/07/26 06:14:57;;;;;;;0.40;0.40;;;;;;;;;;5064171;28;20021;-74
2023/07/26 06:17:22;;;;;;;1.42;0.55;;;;;;;;;;5067608;28;20929;-74
2023/07/26 06:19:48;;;;;;;0.60;0.60;;;;;;;;;;5067018;28;20487;-74
2023/07/26 06:22:14;;;;;;;0.50;0.50;;;;;;;;;;5067603;28;20051;-74
2023/07/26 06:24:40;;;;;;;0.35;0.30;;;;;;;;;;5066775;28;20082;-74
2023/07/26 06:27:06;;;;;;;0.45;0.45;;;;;;;;;;5070607;28;20268;-74
2023/07/26 06:29:34;;;;;;;0.40;0.30;;;;;;;;;;5065504;28;20036;-74
2023/07/26 06:32:00;;;;;;;0.30;0.30;;;;;;;;;;5073480;28;20073;-73
2023/07/26 06:34:26;;;;;;;0.60;0.40;;;;;;;;;;5066585;28;20103;-74
2023/07/26 06:36:52;;;;;;;0.50;0.50;;;;;;;;;;5067650;28;20028;-74
2023/07/26 06:39:18;;;;;;;0.57;0.40;;;;;;;;;;5067565;28;20537;-74
2023/07/26 06:41:46;;;;;;;0.45;0.45;;;;;;;;;;5066699;28;20035;-74
2023/07/26 06:44:15;;;;;;;0.70;0.65;;;;;;;;;;5066450;28;20383;-74
2023/07/26 06:46:41;;;;;;;0.35;0.35;;;;;;;;;;5065991;28;20043;-73
2023/07/26 06:49:07;;;;;;;0.45;0.45;;;;;;;;;;5067177;28;20037;-74
2023/07/26 06:51:33;;;;;;;0.45;0.40;;;;;;;;;;5075310;28;20023;-73
2023/07/26 06:53:59;;;;;;;0.40;0.40;;;;;;;;;;5071720;28;20037;-74
2023/07/26 06:56:25;;;;;;;0.30;0.30;;;;;;;;;;5069673;28;20033;-74
2023/07/26 06:58:53;;;;;;;4.40;1.05;;;;;;;;;;5071296;28;20029;-73
2023/07/26 07:01:19;;;;;;;0.40;0.40;;;;;;;;;;5068984;28;20029;-74
2023/07/26 07:03:45;;;;;;;0.40;0.40;;;;;;;;;;5070928;28;20032;-74
2023/07/26 07:06:11;;;;;;;0.32;0.32;;;;;;;;;;5070435;28;20168;-73
2023/07/26 07:08:40;;;;;;;0.45;0.45;;;;;;;;;;5069865;28;20029;-74
2023/07/26 07:11:06;;;;;;;0.50;0.50;;;;;;;;;;5071065;28;20443;-73
2023/07/26 07:13:36;;;;;;;0.57;0.50;;;;;;;;;;5076993;28;20111;-73
2023/07/26 07:16:03;;;;;;;0.93;0.60;;;;;;;;;;5076352;28;20063;-73
2023/07/26 07:18:30;;;;;;;0.50;0.50;;;;;;;;;;5068803;28;20027;-74
2023/07/26 07:20:57;;;;;;;0.45;0.45;;;;;;;;;;5064457;28;20036;-74
2023/07/26 07:23:23;;;;;;;0.65;0.60;;;;;;;;;;5067803;28;20037;-75
2023/07/26 07:25:50;;;;;;;0.63;0.63;;;;;;;;;;5070751;28;20470;-73
2023/07/26 07:28:16;;;;;;;2.22;1.42;;;;;;;;;;5068922;28;20047;-74
2023/07/26 07:30:42;;;;;;;0.52;0.52;;;;;;;;;;5069780;28;20032;-74
2023/07/26 07:33:08;;;;;;;0.70;0.70;;;;;;;;;;5079201;28;20036;-74
2023/07/26 07:35:34;;;;;;;0.77;0.65;;;;;;;;;;5075330;28;20024;-73
2023/07/26 07:38:00;;;;;;;1.15;0.70;;;;;;;;;;5070904;28;20107;-74
2023/07/26 07:40:26;;;;;;;1.80;0.90;;;;;;;;;;5067763;28;20025;-74
2023/07/26 07:42:52;;;;;;;0.73;0.70;;;;;;;;;;5069183;28;20066;-74
2023/07/26 07:45:18;;;;;;;0.70;0.70;;;;;;;;;;5070349;28;20029;-76
2023/07/26 07:47:44;;;;;;;0.85;0.85;;;;;;;;;;5072230;28;20028;-74
2023/07/26 07:50:10;;;;;;;1.20;1.00;;;;;;;;;;5070692;28;20024;-75
2023/07/26 07:52:36;;;;;;;0.47;0.47;;;;;;;;;;5065717;28;20029;-73
2023/07/26 07:55:02;;;;;;;0.65;0.55;;;;;;;;;;5074054;28;20024;-74
2023/07/26 07:57:28;;;;;;;0.68;0.68;;;;;;;;;;5066063;28;20032;-73
2023/07/26 07:59:54;;;;;;;0.95;0.68;;;;;;;;;;5070313;28;20032;-74
2023/07/26 08:02:19;;;;;;;0.50;0.50;;;;;;;;;;5070264;28;20032;-75
2023/07/26 08:04:45;;;;;;;0.75;0.60;;;;;;;;;;5083577;28;20077;-75
2023/07/26 08:07:11;;;;;;;0.60;0.60;;;;;;;;;;5071883;28;20668;-74
2023/07/26 08:09:37;;;;;;;1.40;0.60;;;;;;;;;;5070717;28;20024;-75
2023/07/26 08:12:03;;;;;;;0.93;0.52;;;;;;;;;;5070843;28;20028;-74
2023/07/26 08:14:29;;;;;;;0.40;0.40;;;;;;;;;;5069674;28;20387;-75
2023/07/26 08:16:55;;;;;;;0.88;0.70;;;;;;;;;;5073303;28;20028;-75
2023/07/26 08:19:21;;;;;;;0.50;0.50;;;;;;;;;;5070871;28;20495;-75
2023/07/26 08:21:47;;;;;;;0.90;0.50;;;;;;;;;;5067538;28;20031;-74
2023/07/26 08:24:13;;;;;;;1.35;0.75;;;;;;;;;;5072159;28;20031;-74
2023/07/26 08:26:39;;;;;;;1.08;0.70;;;;;;;;;;5067503;28;20024;-75
2023/07/26 08:29:05;;;;;;;0.95;0.47;;;;;;;;;;5076692;28;20407;-74
2023/07/26 08:31:31;;;;;;;0.55;0.55;;;;;;;;;;5070099;28;20471;-75
2023/07/26 08:33:57;;;;;;;0.60;0.60;;;;;;;;;;5070320;28;20544;-75
2023/07/26 08:36:24;;;;;;;0.82;0.55;;;;;;;;;;5069021;28;20544;-75
2023/07/26 08:38:49;;;;;;;0.40;0.40;;;;;;;;;;5070202;28;20028;-74
2023/07/26 08:41:15;;;;;;;1.13;0.80;;;;;;;;;;5066139;28;20094;-74
2023/07/26 08:43:43;;;;;;;0.65;0.65;;;;;;;;;;5067554;28;20032;-73
2023/07/26 08:46:10;;;;;;;0.82;0.75;;;;;;;;;;5068873;28;20025;-74
2023/07/26 08:48:37;;;;;;;1.25;0.60;;;;;;;;;;5062670;28;20104;-74
2023/07/26 08:51:03;;;;;;;0.93;0.60;;;;;;;;;;5081114;28;20403;-74
2023/07/26 08:53:30;;;;;;;0.50;0.50;;;;;;;;;;5069772;28;20029;-74
2023/07/26 08:55:56;;;;;;;0.70;0.70;;;;;;;;;;5069862;28;20107;-74
2023/07/26 08:58:22;;;;;;;1.25;0.60;;;;;;;;;;5068571;28;20504;-74
2023/07/26 09:00:48;;;;;;;0.60;0.50;;;;;;;;;;5069579;28;20043;-74
2023/07/26 09:03:16;;;;;;;0.57;0.57;;;;;;;;;;5069874;28;20025;-74
2023/07/26 09:05:42;;;;;;;0.60;0.60;;;;;;;;;;5069300;28;20086;-75
2023/07/26 09:08:08;;;;;;;0.40;0.40;;;;;;;;;;5068128;28;20555;-74
2023/07/26 09:10:34;;;;;;;0.68;0.60;;;;;;;;;;5085183;28;20044;-74
2023/07/26 09:13:14;;;;;;;0.90;0.50;;;;;;;;;;5076207;28;20407;-74
2023/07/26 09:15:40;;;;;;;1.27;0.55;;;;;;;;;;5057728;28;20032;-74
2023/07/26 09:18:08;;;;;;;0.60;0.60;;;;;;;;;;5068864;28;20107;-74
2023/07/26 09:20:34;;;;;;;0.60;0.60;;;;;;;;;;5068619;28;20024;-74
2023/07/26 09:23:06;;;;;;;0.45;0.43;;;;;;;;;;5077007;28;20063;-74
2023/07/26 09:25:37;;;;;;;0.75;0.45;;;;;;;;;;5069221;28;20051;-74
2023/07/26 09:28:04;;;;;;;0.75;0.68;;;;;;;;;;5069141;28;20032;-74
2023/07/26 09:30:30;;;;;;;0.68;0.55;;;;;;;;;;5075956;28;20091;-74
2023/07/26 09:32:56;;;;;;;0.75;0.65;;;;;;;;;;5071491;28;20499;-75
2023/07/26 09:35:22;;;;;;;1.58;0.40;;;;;;;;;;5069100;28;20033;-74
2023/07/26 09:37:48;;;;;;;0.45;0.45;;;;;;;;;;5068925;28;20031;-75
2023/07/26 09:40:14;;;;;;;0.60;0.45;;;;;;;;;;5068159;28;20028;-75
2023/07/26 09:42:48;;;;;;;0.43;0.40;;;;;;;;;;5068735;28;20089;-75
2023/07/26 09:45:16;;;;;;;0.43;0.40;;;;;;;;;;5069077;28;20511;-75
2023/07/26 09:47:42;;;;;;;0.40;0.40;;;;;;;;;;5068721;28;20770;-75
2023/07/26 09:50:23;;;;;;;0.57;0.55;;;;;;;;;;5068142;28;20020;-74
2023/07/26 09:52:49;;;;;;;0.40;0.40;;;;;;;;;;5063357;28;20116;-75
2023/07/26 09:55:15;;;;;;;0.70;0.60;;;;;;;;;;5066924;28;20032;-74
2023/07/26 09:57:42;;;;;;;0.40;0.40;;;;;;;;;;5068494;28;20412;-75
2023/07/26 10:00:09;;;;;;;0.73;0.55;;;;;;;;;;5068844;28;20025;-75
2023/07/26 10:02:37;;;;;;;1.55;0.75;;;;;;;;;;5068483;28;20031;-75
2023/07/26 10:05:03;;;;;;;1.67;0.70;;;;;;;;;;5068518;28;20043;-75
2023/07/26 10:07:31;;;;;;;4.40;1.20;;;;;;;;;;5067675;28;20025;-74
2023/07/26 10:09:58;;;;;;;1.67;0.75;;;;;;;;;;5068632;28;20025;-75
2023/07/26 10:12:26;;;;;;;0.88;0.50;;;;;;;;;;5068714;28;20035;-74
2023/07/26 10:14:54;;;;;;;0.50;0.45;;;;;;;;;;5068443;28;20047;-75
2023/07/26 10:17:20;;;;;;;0.82;0.57;;;;;;;;;;5067008;28;20029;-75
2023/07/26 10:19:47;;;;;;;1.23;0.60;;;;;;;;;;5079869;28;20028;-74
2023/07/26 10:22:14;;;;;;;1.15;0.73;;;;;;;;;;5071039;28;20029;-74
2023/07/26 10:24:42;;;;;;;0.55;0.55;;;;;;;;;;5082027;28;20036;-74
2023/07/26 10:27:09;;;;;;;1.52;0.45;;;;;;;;;;5068724;28;20029;-74
2023/07/26 10:29:35;;;;;;;0.50;0.50;;;;;;;;;;5068263;28;20049;-75
2023/07/26 10:32:03;;;;;;;0.45;0.45;;;;;;;;;;5071619;28;20464;-74
2023/07/26 10:34:29;;;;;;;0.35;0.35;;;;;;;;;;5072489;28;20391;-75
2023/07/26 10:36:55;;;;;;;0.40;0.35;;;;;;;;;;5072589;28;20028;-74
2023/07/26 10:39:34;;;;;;;0.50;0.40;;;;;;;;;;5072292;28;20035;-75
2023/07/26 10:42:00;;;;;;;0.95;0.60;;;;;;;;;;5072432;28;20117;-74
2023/07/26 10:44:29;;;;;;;0.30;0.30;;;;;;;;;;5083096;28;20387;-75
2023/07/26 10:47:00;;;;;;;0.65;0.45;;;;;;;;;;5073599;28;20038;-73
2023/07/26 10:49:27;;;;;;;0.68;0.50;;;;;;;;;;5076350;28;20031;-74
2023/07/26 10:51:58;;;;;;;1.20;0.75;;;;;;;;;;5080538;28;20626;-74
2023/07/26 10:54:34;;;;;;;0.80;0.45;;;;;;;;;;5072202;28;20052;-74
2023/07/26 10:57:15;;;;;;;0.40;0.40;;;;;;;;;;5081658;28;20139;-73
2023/07/26 10:59:58;;;;;;;1.35;0.85;;;;;;;;;;5075715;28;20036;-74
2023/07/26 11:02:43;;;;;;;1.08;0.93;;;;;;;;;;5072047;28;20024;-74
2023/07/26 11:05:11;;;;;;;0.50;0.32;;;;;;;;;;5070957;28;20045;-74
2023/07/26 11:08:00;;;;;;;0.60;0.60;;;;;;;;;;5071717;28;20028;-74
2023/07/26 11:10:30;;;;;;;0.40;0.40;;;;;;;;;;5071916;28;20021;-74
2023/07/26 11:13:05;;;;;;;0.70;0.50;;;;;;;;;;5067508;28;20024;-74
2023/07/26 11:15:31;;;;;;;1.27;0.57;;;;;;;;;;5067975;28;20029;-73
2023/07/26 11:17:57;;;;;;;0.50;0.50;;;;;;;;;;5070543;28;20028;-73
2023/07/26 11:20:24;;;;;;;1.10;0.47;;;;;;;;;;5073570;28;20059;-74
2023/07/26 11:22:50;;;;;;;0.60;0.50;;;;;;;;;;5070069;28;20111;-78
2023/07/26 11:25:16;;;;;;;0.45;0.45;;;;;;;;;;5080517;28;20024;-75
2023/07/26 11:27:42;;;;;;;0.57;0.57;;;;;;;;;;5069258;28;20027;-75
2023/07/26 11:30:18;;;;;;;0.75;0.52;;;;;;;;;;5072449;28;20040;-77
2023/07/26 11:32:45;;;;;;;1.10;0.70;;;;;;;;;;5066380;28;20131;-75
2023/07/26 11:35:11;;;;;;;0.85;0.50;;;;;;;;;;5071506;28;20024;-75
2023/07/26 11:37:37;;;;;;;1.17;0.70;;;;;;;;;;5070947;28;20085;-75
2023/07/26 11:40:09;;;;;;;1.30;0.70;;;;;;;;;;5079951;28;20020;-75
2023/07/26 11:42:35;;;;;;;4.30;1.50;;;;;;;;;;5077360;28;20125;-74
2023/07/26 11:45:03;;;;;;;2.20;1.40;;;;;;;;;;5082085;28;20529;-75
2023/07/26 11:47:32;;;;;;;1.88;0.93;;;;;;;;;;5070749;28;20075;-74
2023/07/26 11:49:58;;;;;;;3.13;1.02;;;;;;;;;;5070136;28;20402;-75
2023/07/26 11:52:24;;;;;;;2.88;0.60;;;;;;;;;;5071061;28;20028;-75
2023/07/26 11:54:54;;;;;;;3.17;1.00;;;;;;;;;;5078062;28;20114;-76
2023/07/26 11:57:20;;;;;;;2.30;1.03;;;;;;;;;;5076475;28;20107;-75
2023/07/26 11:59:46;;;;;;;0.95;0.70;;;;;;;;;;5070327;28;20547;-73
2023/07/26 12:02:12;;;;;;;4.13;0.82;;;;;;;;;;5073987;28;20033;-74
2023/07/26 12:04:38;;;;;;;3.97;1.38;;;;;;;;;;5072858;28;21836;-74
2023/07/26 12:07:09;;;;;;;3.05;0.85;;;;;;;;;;5069171;28;20085;-74
2023/07/26 12:09:44;;;;;;;1.80;1.05;;;;;;;;;;5062768;28;20029;-73
2023/07/26 12:12:10;;;;;;;1.10;0.70;;;;;;;;;;5070300;28;20048;-74
2023/07/26 12:14:38;;;;;;;1.02;0.75;;;;;;;;;;5079171;28;20522;-74
2023/07/26 12:17:15;;;;;;;2.08;1.02;;;;;;;;;;5069854;28;20052;-74
2023/07/26 12:19:45;;;;;;;1.98;1.08;;;;;;;;;;5070027;28;20020;-73
2023/07/26 12:22:11;;;;;;;1.27;0.93;;;;;;;;;;5070039;28;20028;-76
2023/07/26 12:24:54;;;;;;;0.77;0.77;;;;;;;;;;5067390;28;20479;-76
2023/07/26 12:27:20;;;;;;;3.40;0.93;;;;;;;;;;5068734;28;20016;-79
2023/07/26 12:29:46;;;;;;;3.65;1.10;;;;;;;;;;5067734;28;20515;-77
2023/07/26 12:32:15;;;;;;;1.48;0.77;;;;;;;;;;5067317;28;20036;-80
2023/07/26 12:34:42;;;;;;;1.95;0.80;;;;;;;;;;5065621;28;20035;-76
2023/07/26 12:37:09;;;;;;;1.88;1.17;;;;;;;;;;5067574;28;20028;-75
2023/07/26 12:39:37;;;;;;;1.48;0.70;;;;;;;;;;5068529;28;20028;-74
2023/07/26 12:42:03;;;;;;;1.23;1.00;;;;;;;;;;5066215;28;20029;-74
2023/07/26 12:44:29;;;;;;;2.67;0.80;;;;;;;;;;5066471;28;20029;-73
2023/07/26 12:46:55;;;;;;;0.70;0.70;;;;;;;;;;5066337;28;20104;-74
2023/07/26 12:49:21;;;;;;;1.25;0.90;;;;;;;;;;5066961;28;20391;-76
2023/07/26 12:51:48;;;;;;;1.90;0.82;;;;;;;;;;5064748;28;20021;-76
2023/07/26 12:54:14;;;;;;;1.40;1.30;;;;;;;;;;5061289;28;20028;-76
2023/07/26 12:56:40;;;;;;;3.00;0.93;;;;;;;;;;5067269;28;20051;-75
2023/07/26 12:59:06;;;;;;;3.67;1.05;;;;;;;;;;5067048;28;20033;-76
2023/07/26 13:01:32;;;;;;;3.75;0.98;;;;;;;;;;5069479;28;20036;-75
2023/07/26 13:03:58;;;;;;;3.92;1.17;;;;;;;;;;5068031;28;20570;-74
2023/07/26 13:06:24;;;;;;;11.55;0.93;;;;;;;;;;5066316;28;20028;-75
2023/07/26 13:09:18;;;;;;;1.35;0.80;;;;;;;;;;5065105;28;20078;-75
2023/07/26 13:11:44;;;;;;;2.05;0.77;;;;;;;;;;5063176;28;20036;-75
2023/07/26 13:14:10;;;;;;;1.67;0.75;;;;;;;;;;5065960;28;20106;-74
2023/07/26 13:16:36;;;;;;;0.40;0.40;;;;;;;;;;5067232;28;20032;-75
2023/07/26 13:19:02;;;;;;;0.73;0.63;;;;;;;;;;5061607;28;20561;-83
2023/07/26 13:21:28;;;;;;;6.40;0.90;;;;;;;;;;5062912;28;20115;-75
2023/07/26 13:23:55;;;;;;;0.80;0.80;;;;;;;;;;5067288;28;20497;-75
2023/07/26 13:26:21;;;;;;;0.68;0.65;;;;;;;;;;5066573;28;20028;-75
2023/07/26 13:28:48;;;;;;;0.43;0.43;;;;;;;;;;5067930;28;20450;-75
2023/07/26 13:31:14;;;;;;;0.98;0.63;;;;;;;;;;5070078;28;20032;-75
2023/07/26 13:33:40;;;;;;;0.88;0.52;;;;;;;;;;5069384;28;20024;-76
2023/07/26 13:36:06;;;;;;;0.43;0.43;;;;;;;;;;5066616;28;20031;-75
2023/07/26 13:38:32;;;;;;;0.80;0.57;;;;;;;;;;5071272;28;20094;-75
2023/07/26 13:40:58;;;;;;;0.50;0.50;;;;;;;;;;5066570;28;20089;-76
2023/07/26 13:43:25;;;;;;;0.60;0.57;;;;;;;;;;5071888;28;20487;-75
2023/07/26 13:45:51;;;;;;;1.38;0.80;;;;;;;;;;5068950;28;20232;-75
2023/07/26 13:48:17;;;;;;;1.33;0.65;;;;;;;;;;5069330;28;20483;-75
2023/07/26 13:50:44;;;;;;;1.13;0.70;;;;;;;;;;5067670;28;20036;-75
2023/07/26 13:53:10;;;;;;;3.53;0.70;;;;;;;;;;5068095;28;20025;-75
2023/07/26 13:55:36;;;;;;;1.65;0.80;;;;;;;;;;5068855;28;20025;-75
2023/07/26 13:58:02;;;;;;;1.25;0.60;;;;;;;;;;5067009;28;20090;-74
2023/07/26 14:00:28;;;;;;;0.60;0.60;;;;;;;;;;5069834;28;20078;-75
2023/07/26 14:02:53;;;;;;;0.95;0.73;;;;;;;;;;5065127;28;20047;-75
2023/07/26 14:05:19;;;;;;;0.93;0.60;;;;;;;;;;5074975;28;20025;-75
2023/07/26 14:07:45;;;;;;;1.60;0.70;;;;;;;;;;5064577;28;20029;-75
2023/07/26 14:10:11;;;;;;;0.57;0.57;;;;;;;;;;5065487;28;21212;-75
2023/07/26 14:12:37;;;;;;;0.50;0.50;;;;;;;;;;5065150;28;20028;-75
2023/07/26 14:15:03;;;;;;;0.75;0.73;;;;;;;;;;5067258;28;20046;-75
2023/07/26 14:17:29;;;;;;;0.50;0.50;;;;;;;;;;5066699;28;20033;-75
2023/07/26 14:19:55;;;;;;;1.08;0.80;;;;;;;;;;5044389;28;20446;-75
2023/07/26 14:22:21;;;;;;;1.15;0.77;;;;;;;;;;5062534;28;20035;-75
2023/07/26 14:24:47;;;;;;;0.50;0.50;;;;;;;;;;5064493;28;20054;-75
2023/07/26 14:27:13;;;;;;;0.52;0.50;;;;;;;;;;5066503;28;20552;-75
2023/07/26 14:29:39;;;;;;;0.50;0.50;;;;;;;;;;5065621;28;20051;-75
2023/07/26 14:32:05;;;;;;;0.55;0.52;;;;;;;;;;5065092;28;20043;-75
2023/07/26 14:34:31;;;;;;;0.60;0.50;;;;;;;;;;5066578;28;20088;-75
2023/07/26 14:36:57;;;;;;;0.73;0.73;;;;;;;;;;5068024;28;20437;-75
2023/07/26 14:39:23;;;;;;;3.15;0.57;;;;;;;;;;5066894;28;20394;-75
2023/07/26 14:41:49;;;;;;;28.70;2.67;;;;;;;;;;5066389;28;20506;-75